createdAt,value
2023-11-12T00:00:49.236Z,9.747576
2023-11-12T00:01:49.303Z,9.747500
2023-11-12T00:02:49.234Z,9.747375
2023-11-12T00:03:49.294Z,9.747415
2023-11-12T00:04:49.233Z,9.747456
2023-11-12T00:05:49.184Z,9.747465
2023-11-12T00:06:49.168Z,9.747433
2023-11-12T00:07:49.182Z,9.747500
2023-11-12T00:08:49.158Z,9.747407
2023-11-12T00:09:49.198Z,9.747443
2023-11-12T00:10:49.217Z,9.747409
2023-11-12T00:11:49.148Z,9.747488
2023-11-12T00:12:49.138Z,9.747576
2023-11-12T00:13:49.155Z,9.747428
2023-11-12T00:14:49.140Z,9.747420
2023-11-12T00:15:49.110Z,9.747437
2023-11-12T00:16:49.121Z,9.747483
2023-11-12T00:17:49.134Z,9.747443
2023-11-12T00:18:49.113Z,9.747475
2023-11-12T00:19:49.104Z,9.747556
2023-11-12T00:20:49.078Z,9.747522
2023-11-12T00:21:49.057Z,9.747478
2023-11-12T00:22:49.073Z,9.747442
2023-11-12T00:23:49.103Z,9.747517
2023-11-12T00:24:49.034Z,9.747529
2023-11-12T00:25:49.051Z,9.747515
2023-11-12T00:26:49.019Z,9.747478
2023-11-12T00:27:49.012Z,9.747478
2023-11-12T00:28:49.060Z,9.747440
2023-11-12T00:29:49.006Z,9.747467
2023-11-12T00:30:48.992Z,9.747490
2023-11-12T00:31:49.076Z,9.747412
2023-11-12T00:32:49.116Z,9.747456
2023-11-12T00:33:48.998Z,9.747348
2023-11-12T00:34:49.106Z,9.747521
2023-11-12T00:35:48.981Z,9.747473
2023-11-12T00:36:48.942Z,9.747473
2023-11-12T00:37:48.986Z,9.747335
2023-11-12T00:38:48.964Z,9.747442
2023-11-12T00:39:48.931Z,9.747427
2023-11-12T00:40:48.951Z,9.747474
2023-11-12T00:41:48.916Z,9.747363
2023-11-12T00:42:48.928Z,9.747459
2023-11-12T00:43:50.182Z,9.747437
2023-11-12T00:44:49.896Z,9.747358
2023-11-12T00:45:48.936Z,9.747433
2023-11-12T00:46:48.935Z,9.747402
2023-11-12T00:47:48.956Z,9.747456
2023-11-12T00:48:48.885Z,9.747487
2023-11-12T00:49:48.855Z,9.747521
2023-11-12T00:50:48.837Z,9.747442
2023-11-12T00:51:48.835Z,9.747472
2023-11-12T00:52:48.855Z,9.747421
2023-11-12T00:53:48.822Z,9.747442
2023-11-12T00:54:48.812Z,9.747385
2023-11-12T00:55:48.841Z,9.747481
2023-11-12T00:56:48.808Z,9.747474
2023-11-12T00:57:48.809Z,9.747375
2023-11-12T00:58:48.826Z,9.747373
2023-11-12T00:59:48.850Z,9.747371
2023-11-12T01:00:48.781Z,9.747396
2023-11-12T01:01:48.948Z,9.747449
2023-11-12T01:02:48.886Z,9.747362
2023-11-12T01:03:48.832Z,9.747447
2023-11-12T01:04:48.785Z,9.747466
2023-11-12T01:05:48.720Z,9.747478
2023-11-12T01:06:48.784Z,9.747476
2023-11-12T01:07:48.784Z,9.747473
2023-11-12T01:08:48.698Z,9.747412
2023-11-12T01:09:48.694Z,9.747379
2023-11-12T01:10:48.840Z,9.747439
2023-11-12T01:11:48.711Z,9.747464
2023-11-12T01:12:48.726Z,9.747489
2023-11-12T01:13:48.683Z,9.747401
2023-11-12T01:14:48.936Z,9.747525
2023-11-12T01:15:48.726Z,9.747431
2023-11-12T01:16:48.711Z,9.747466
2023-11-12T01:17:48.684Z,9.747415
2023-11-12T01:18:48.948Z,9.747408
2023-11-12T01:19:48.621Z,9.747416
2023-11-12T01:20:48.608Z,9.747387
2023-11-12T01:21:48.696Z,9.747493
2023-11-12T01:22:48.597Z,9.747525
2023-11-12T01:23:48.584Z,9.747508
2023-11-12T01:24:49.578Z,9.747477
2023-11-12T01:25:48.619Z,9.747424
2023-11-12T01:26:48.616Z,9.747457
2023-11-12T01:27:48.562Z,9.747400
2023-11-12T01:28:48.548Z,9.747462
2023-11-12T01:29:48.539Z,9.747480
2023-11-12T01:30:48.565Z,9.747424
2023-11-12T01:31:48.600Z,9.747367
2023-11-12T01:32:48.569Z,9.747371
2023-11-12T01:33:48.505Z,9.747453
2023-11-12T01:34:48.530Z,9.747462
2023-11-12T01:35:48.522Z,9.747384
2023-11-12T01:36:48.495Z,9.747438
2023-11-12T01:37:48.472Z,9.747373
2023-11-12T01:38:48.485Z,9.747466
2023-11-12T01:39:48.481Z,9.747477
2023-11-12T01:40:48.483Z,9.747282
2023-11-12T01:41:49.328Z,9.747279
2023-11-12T01:42:48.437Z,9.747184
2023-11-12T01:43:48.446Z,9.747299
2023-11-12T01:44:48.454Z,9.747339
2023-11-12T01:45:48.420Z,9.747345
2023-11-12T01:46:48.411Z,9.747372
2023-11-12T01:47:48.499Z,9.747566
2023-11-12T01:48:48.488Z,9.747399
2023-11-12T01:49:48.422Z,9.747357
2023-11-12T01:50:48.380Z,9.747347
2023-11-12T01:51:48.368Z,9.747327
2023-11-12T01:52:48.350Z,9.747351
2023-11-12T01:53:49.351Z,9.747371
2023-11-12T01:54:48.372Z,9.747321
2023-11-12T01:55:48.344Z,9.747351
2023-11-12T01:56:48.326Z,9.747272
2023-11-12T01:57:48.320Z,9.747313
2023-11-12T01:58:48.309Z,9.747325
2023-11-12T01:59:48.330Z,9.747416
2023-11-12T02:00:48.314Z,9.747263
2023-11-12T02:01:48.371Z,9.747334
2023-11-12T02:02:48.373Z,9.747343
2023-11-12T02:03:48.418Z,9.747271
2023-11-12T02:04:48.594Z,9.747254
2023-11-12T02:05:48.265Z,9.747228
2023-11-12T02:06:48.248Z,9.747380
2023-11-12T02:07:48.245Z,9.747348
2023-11-12T02:08:48.246Z,9.747380
2023-11-12T02:09:48.248Z,9.747234
2023-11-12T02:10:48.229Z,9.747376
2023-11-12T02:11:48.205Z,9.747363
2023-11-12T02:12:48.318Z,9.747272
2023-11-12T02:13:48.221Z,9.747310
2023-11-12T02:14:48.228Z,9.747517
2023-11-12T02:15:48.255Z,9.747217
2023-11-12T02:16:48.224Z,9.747330
2023-11-12T02:17:48.182Z,9.747132
2023-11-12T02:18:48.256Z,9.747048
2023-11-12T02:19:48.160Z,9.747256
2023-11-12T02:20:48.160Z,9.747404
2023-11-12T02:21:48.149Z,9.747456
2023-11-12T02:22:48.133Z,9.747463
2023-11-12T02:23:48.168Z,9.747304
2023-11-12T02:24:48.123Z,9.747508
2023-11-12T02:25:48.117Z,9.747271
2023-11-12T02:26:48.110Z,9.747163
2023-11-12T02:27:48.094Z,9.747232
2023-11-12T02:28:48.119Z,9.747297
2023-11-12T02:29:48.077Z,9.747079
2023-11-12T02:30:48.132Z,9.747268
2023-11-12T02:31:48.062Z,9.747295
2023-11-12T02:32:48.106Z,9.747389
2023-11-12T02:33:48.102Z,9.747335
2023-11-12T02:34:48.051Z,9.747314
2023-11-12T02:35:48.039Z,9.747410
2023-11-12T02:36:48.028Z,9.747405
2023-11-12T02:37:48.042Z,9.747289
2023-11-12T02:38:48.016Z,9.747317
2023-11-12T02:39:48.007Z,9.747252
2023-11-12T02:40:48.002Z,9.747294
2023-11-12T02:41:47.987Z,9.747303
2023-11-12T02:42:48.008Z,9.747359
2023-11-12T02:43:47.968Z,9.747148
2023-11-12T02:44:47.969Z,9.747230
2023-11-12T02:45:47.985Z,9.747322
2023-11-12T02:46:48.018Z,9.747266
2023-11-12T02:47:48.038Z,9.747355
2023-11-12T02:48:47.957Z,9.747289
2023-11-12T02:49:47.948Z,9.747402
2023-11-12T02:50:47.920Z,9.747175
2023-11-12T02:51:47.936Z,9.747129
2023-11-12T02:52:47.906Z,9.747040
2023-11-12T02:53:47.904Z,9.747282
2023-11-12T02:54:47.889Z,9.747237
2023-11-12T02:55:47.885Z,9.747191
2023-11-12T02:56:47.902Z,9.747121
2023-11-12T02:57:47.869Z,9.747305
2023-11-12T02:58:47.864Z,9.747492
2023-11-12T02:59:47.864Z,9.747238
2023-11-12T03:00:47.974Z,9.747124
2023-11-12T03:01:47.872Z,9.747319
2023-11-12T03:02:47.959Z,9.747247
2023-11-12T03:03:47.880Z,9.747178
2023-11-12T03:04:47.823Z,9.747233
2023-11-12T03:05:47.836Z,9.747273
2023-11-12T03:06:47.829Z,9.747286
2023-11-12T03:07:47.797Z,9.747408
2023-11-12T03:08:47.786Z,9.747482
2023-11-12T03:09:47.781Z,9.747463
2023-11-12T03:10:47.886Z,9.747498
2023-11-12T03:11:47.765Z,9.747473
2023-11-12T03:12:47.769Z,9.747511
2023-11-12T03:13:47.749Z,9.747459
2023-11-12T03:14:47.744Z,9.747478
2023-11-12T03:15:47.816Z,9.747401
2023-11-12T03:16:47.757Z,9.747414
2023-11-12T03:17:47.748Z,9.747475
2023-11-12T03:18:47.965Z,9.747425
2023-11-12T03:19:47.752Z,9.747413
2023-11-12T03:20:47.703Z,9.747490
2023-11-12T03:21:47.695Z,9.747412
2023-11-12T03:22:47.707Z,9.747415
2023-11-12T03:23:47.679Z,9.747369
2023-11-12T03:24:47.697Z,9.747369
2023-11-12T03:25:47.664Z,9.747406
2023-11-12T03:26:47.661Z,9.747372
2023-11-12T03:27:47.678Z,9.747455
2023-11-12T03:28:47.653Z,9.747431
2023-11-12T03:29:48.664Z,9.747378
2023-11-12T03:30:47.702Z,9.747433
2023-11-12T03:31:47.636Z,9.747473
2023-11-12T03:32:47.733Z,9.747414
2023-11-12T03:33:47.678Z,9.747399
2023-11-12T03:34:47.621Z,9.747450
2023-11-12T03:35:47.597Z,9.747492
2023-11-12T03:36:47.592Z,9.747395
2023-11-12T03:37:47.588Z,9.747369
2023-11-12T03:38:47.587Z,9.747465
2023-11-12T03:39:47.622Z,9.747459
2023-11-12T03:40:47.558Z,9.747457
2023-11-12T03:41:47.561Z,9.747456
2023-11-12T03:42:47.536Z,9.747498
2023-11-12T03:43:48.572Z,9.747550
2023-11-12T03:44:47.528Z,9.747505
2023-11-12T03:45:47.543Z,9.747376
2023-11-12T03:46:47.533Z,9.747467
2023-11-12T03:47:47.554Z,9.747439
2023-11-12T03:48:47.585Z,9.747472
2023-11-12T03:49:47.490Z,9.747486
2023-11-12T03:50:47.480Z,9.747482
2023-11-12T03:51:47.470Z,9.747494
2023-11-12T03:52:47.461Z,9.747377
2023-11-12T03:53:47.476Z,9.747419
2023-11-12T03:54:47.494Z,9.747383
2023-11-12T03:55:47.435Z,9.747393
2023-11-12T03:56:47.423Z,9.747437
2023-11-12T03:57:47.492Z,9.747430
2023-11-12T03:58:47.447Z,9.747408
2023-11-12T03:59:47.411Z,9.747457
2023-11-12T04:00:47.427Z,9.747466
2023-11-12T04:01:47.394Z,9.747440
2023-11-12T04:02:48.913Z,9.747481
2023-11-12T04:03:47.558Z,9.747445
2023-11-12T04:04:47.482Z,9.747483
2023-11-12T04:05:47.363Z,9.747422
2023-11-12T04:06:47.352Z,9.747474
2023-11-12T04:07:47.391Z,9.747432
2023-11-12T04:08:47.359Z,9.747531
2023-11-12T04:09:47.333Z,9.747425
2023-11-12T04:10:47.316Z,9.747382
2023-11-12T04:11:47.327Z,9.747353
2023-11-12T04:12:47.329Z,9.747429
2023-11-12T04:13:47.301Z,9.747437
2023-11-12T04:14:47.293Z,9.747477
2023-11-12T04:15:47.353Z,9.747547
2023-11-12T04:16:47.297Z,9.747437
2023-11-12T04:17:47.338Z,9.747489
2023-11-12T04:18:47.272Z,9.747549
2023-11-12T04:19:47.248Z,9.747545
2023-11-12T04:20:47.253Z,9.747604
2023-11-12T04:21:47.326Z,9.747445
2023-11-12T04:22:47.229Z,9.747502
2023-11-12T04:23:47.218Z,9.747478
2023-11-12T04:24:47.289Z,9.747489
2023-11-12T04:25:47.207Z,9.747460
2023-11-12T04:26:47.271Z,9.747462
2023-11-12T04:27:47.186Z,9.747515
2023-11-12T04:28:47.188Z,9.747445
2023-11-12T04:29:47.171Z,9.747380
2023-11-12T04:30:47.167Z,9.747393
2023-11-12T04:31:47.196Z,9.747208
2023-11-12T04:32:47.990Z,9.747475
2023-11-12T04:33:47.138Z,9.747467
2023-11-12T04:34:47.133Z,9.747342
2023-11-12T04:35:47.153Z,9.747354
2023-11-12T04:36:47.142Z,9.747338
2023-11-12T04:37:47.120Z,9.747403
2023-11-12T04:38:47.112Z,9.747529
2023-11-12T04:39:47.128Z,9.747473
2023-11-12T04:40:47.133Z,9.747363
2023-11-12T04:41:47.086Z,9.747361
2023-11-12T04:42:47.117Z,9.747272
2023-11-12T04:43:47.065Z,9.747326
2023-11-12T04:44:47.053Z,9.747484
2023-11-12T04:45:47.201Z,9.747428
2023-11-12T04:46:47.045Z,9.747453
2023-11-12T04:47:47.066Z,9.747461
2023-11-12T04:48:47.042Z,9.747262
2023-11-12T04:49:47.016Z,9.747446
2023-11-12T04:50:47.423Z,9.747454
2023-11-12T04:51:47.059Z,9.747424
2023-11-12T04:52:46.997Z,9.747441
2023-11-12T04:53:46.990Z,9.747393
2023-11-12T04:54:47.029Z,9.747399
2023-11-12T04:55:47.004Z,9.747396
2023-11-12T04:56:46.968Z,9.747379
2023-11-12T04:57:46.982Z,9.747422
2023-11-12T04:58:46.960Z,9.747411
2023-11-12T04:59:46.970Z,9.747421
2023-11-12T05:00:46.965Z,9.747406
2023-11-12T05:01:46.973Z,9.747353
2023-11-12T05:02:46.951Z,9.747325
2023-11-12T05:03:47.091Z,9.747347
2023-11-12T05:04:46.930Z,9.747295
2023-11-12T05:05:46.909Z,9.747414
2023-11-12T05:06:46.904Z,9.747434
2023-11-12T05:07:46.885Z,9.747363
2023-11-12T05:08:46.881Z,9.747335
2023-11-12T05:09:46.972Z,9.747376
2023-11-12T05:10:46.868Z,9.747365
2023-11-12T05:11:46.855Z,9.747366
2023-11-12T05:12:46.966Z,9.747300
2023-11-12T05:13:46.865Z,9.747398
2023-11-12T05:14:46.857Z,9.747367
2023-11-12T05:15:46.860Z,9.747308
2023-11-12T05:16:46.813Z,9.747263
2023-11-12T05:17:46.837Z,9.747266
2023-11-12T05:18:46.880Z,9.747294
2023-11-12T05:19:46.796Z,9.747338
2023-11-12T05:20:46.785Z,9.747243
2023-11-12T05:22:20.896Z,9.747318
2023-11-12T05:22:46.772Z,9.747308
2023-11-12T05:23:46.794Z,9.747316
2023-11-12T05:24:46.796Z,9.747305
2023-11-12T05:25:46.777Z,9.747327
2023-11-12T05:26:46.749Z,9.747188
2023-11-12T05:27:46.788Z,9.747284
2023-11-12T05:28:46.764Z,9.747270
2023-11-12T05:29:46.745Z,9.747276
2023-11-12T05:30:46.751Z,9.747401
2023-11-12T05:31:46.720Z,9.747287
2023-11-12T05:32:46.787Z,9.747350
2023-11-12T05:33:46.769Z,9.747311
2023-11-12T05:34:46.689Z,9.747344
2023-11-12T05:35:46.752Z,9.747314
2023-11-12T05:36:46.706Z,9.747341
2023-11-12T05:37:46.697Z,9.747298
2023-11-12T05:38:46.653Z,9.747299
2023-11-12T05:39:46.721Z,9.747319
2023-11-12T05:40:46.774Z,9.747353
2023-11-12T05:41:46.690Z,9.747421
2023-11-12T05:42:46.696Z,9.747381
2023-11-12T05:43:46.615Z,9.747261
2023-11-12T05:44:46.615Z,9.747315
2023-11-12T05:45:46.627Z,9.747446
2023-11-12T05:46:46.623Z,9.747431
2023-11-12T05:47:46.660Z,9.747338
2023-11-12T05:48:46.617Z,9.747413
2023-11-12T05:49:46.571Z,9.747380
2023-11-12T05:50:46.592Z,9.747306
2023-11-12T05:51:46.618Z,9.747479
2023-11-12T05:52:46.585Z,9.747399
2023-11-12T05:53:46.559Z,9.747435
2023-11-12T05:54:46.569Z,9.747450
2023-11-12T05:55:46.522Z,9.747415
2023-11-12T05:56:46.549Z,9.747427
2023-11-12T05:57:46.576Z,9.747334
2023-11-12T05:58:46.525Z,9.747371
2023-11-12T05:59:46.502Z,9.747363
2023-11-12T06:00:46.562Z,9.747404
2023-11-12T06:01:46.625Z,9.747310
2023-11-12T06:02:46.537Z,9.747529
2023-11-12T06:03:47.118Z,9.747491
2023-11-12T06:04:46.461Z,9.747574
2023-11-12T06:05:46.453Z,9.747401
2023-11-12T06:06:46.520Z,9.747295
2023-11-12T06:07:46.459Z,9.747294
2023-11-12T06:08:46.435Z,9.747222
2023-11-12T06:09:46.473Z,9.747096
2023-11-12T06:10:46.447Z,9.747105
2023-11-12T06:11:46.422Z,9.747167
2023-11-12T06:12:46.474Z,9.747374
2023-11-12T06:13:46.383Z,9.747416
2023-11-12T06:14:49.041Z,9.747426
2023-11-12T06:15:47.498Z,9.747373
2023-11-12T06:16:46.407Z,9.747263
2023-11-12T06:17:46.409Z,9.747313
2023-11-12T06:18:46.365Z,9.747264
2023-11-12T06:19:46.396Z,9.747371
2023-11-12T06:20:46.387Z,9.747402
2023-11-12T06:21:46.394Z,9.747547
2023-11-12T06:22:46.317Z,9.747379
2023-11-12T06:23:46.364Z,9.747388
2023-11-12T06:24:46.365Z,9.747342
2023-11-12T06:25:46.330Z,9.747296
2023-11-12T06:26:46.292Z,9.747262
2023-11-12T06:27:46.313Z,9.747399
2023-11-12T06:28:46.272Z,9.747435
2023-11-12T06:29:46.287Z,9.747362
2023-11-12T06:30:46.285Z,9.747284
2023-11-12T06:31:46.244Z,9.747352
2023-11-12T06:32:46.277Z,9.747314
2023-11-12T06:33:46.286Z,9.747490
2023-11-12T06:34:46.329Z,9.747468
2023-11-12T06:35:46.223Z,9.747540
2023-11-12T06:36:46.865Z,9.747525
2023-11-12T06:37:46.208Z,9.747468
2023-11-12T06:38:46.305Z,9.747540
2023-11-12T06:39:46.238Z,9.747505
2023-11-12T06:40:46.186Z,9.747533
2023-11-12T06:41:46.216Z,9.747461
2023-11-12T06:42:46.193Z,9.747477
2023-11-12T06:43:46.188Z,9.747396
2023-11-12T06:44:46.176Z,9.747452
2023-11-12T06:45:46.171Z,9.747498
2023-11-12T06:46:46.193Z,9.747586
2023-11-12T06:47:46.164Z,9.747537
2023-11-12T06:48:46.184Z,9.747354
2023-11-12T06:49:46.112Z,9.747440
2023-11-12T06:50:46.098Z,9.747431
2023-11-12T06:51:46.156Z,9.747473
2023-11-12T06:52:46.085Z,9.747413
2023-11-12T06:53:46.109Z,9.747442
2023-11-12T06:54:46.145Z,9.747483
2023-11-12T06:55:46.070Z,9.747416
2023-11-12T06:56:46.071Z,9.747437
2023-11-12T06:57:46.071Z,9.747299
2023-11-12T06:58:46.064Z,9.747336
2023-11-12T06:59:46.035Z,9.747536
2023-11-12T07:00:46.060Z,9.747645
2023-11-12T07:01:46.082Z,9.747624
2023-11-12T07:02:46.052Z,9.747633
2023-11-12T07:03:46.124Z,9.747617
2023-11-12T07:04:46.013Z,9.747695
2023-11-12T07:05:45.994Z,9.747717
2023-11-12T07:07:01.026Z,9.747900
2023-11-12T07:07:47.984Z,9.747515
2023-11-12T07:08:45.996Z,9.747449
2023-11-12T07:09:46.044Z,9.747412
2023-11-12T07:10:45.955Z,9.747524
2023-11-12T07:11:45.946Z,9.747464
2023-11-12T07:12:46.032Z,9.747287
2023-11-12T07:13:45.999Z,9.747311
2023-11-12T07:14:45.919Z,9.747514
2023-11-12T07:15:45.974Z,9.747224
2023-11-12T07:16:45.992Z,9.747237
2023-11-12T07:17:45.968Z,9.747252
2023-11-12T07:18:53.444Z,9.747405
2023-11-12T07:19:46.880Z,9.747458
2023-11-12T07:20:45.893Z,9.747280
2023-11-12T07:21:45.926Z,9.747363
2023-11-12T07:22:45.906Z,9.747379
2023-11-12T07:23:45.852Z,9.747454
2023-11-12T07:24:45.898Z,9.747490
2023-11-12T07:25:45.833Z,9.747593
2023-11-12T07:26:45.851Z,9.747526
2023-11-12T07:27:45.884Z,9.747513
2023-11-12T07:28:45.827Z,9.747408
2023-11-12T07:29:45.812Z,9.747496
2023-11-12T07:30:45.816Z,9.747439
2023-11-12T07:31:45.852Z,9.747514
2023-11-12T07:32:45.809Z,9.747451
2023-11-12T07:33:45.794Z,9.747449
2023-11-12T07:34:45.763Z,9.747494
2023-11-12T07:35:45.758Z,9.747353
2023-11-12T07:36:45.843Z,9.747478
2023-11-12T07:37:45.740Z,9.747413
2023-11-12T07:38:45.736Z,9.747282
2023-11-12T07:39:45.785Z,9.747414
2023-11-12T07:40:45.919Z,9.747469
2023-11-12T07:41:45.739Z,9.747424
2023-11-12T07:42:45.724Z,9.747391
2023-11-12T07:43:45.719Z,9.747313
2023-11-12T07:44:47.137Z,9.747398
2023-11-12T07:45:45.865Z,9.747340
2023-11-12T07:46:45.717Z,9.747361
2023-11-12T07:47:45.666Z,9.747409
2023-11-12T07:48:45.705Z,9.747338
2023-11-12T07:49:45.663Z,9.747478
2023-11-12T07:50:45.671Z,9.747442
2023-11-12T07:51:45.733Z,9.747480
2023-11-12T07:52:45.629Z,9.747426
2023-11-12T07:53:45.631Z,9.747382
2023-11-12T07:54:45.643Z,9.747399
2023-11-12T07:55:45.628Z,9.747464
2023-11-12T07:56:45.612Z,9.747415
2023-11-12T07:57:45.618Z,9.747457
2023-11-12T07:58:45.641Z,9.747414
2023-11-12T07:59:45.581Z,9.747408
2023-11-12T08:00:45.642Z,9.747413
2023-11-12T08:01:45.611Z,9.747363
2023-11-12T08:02:45.648Z,9.747362
2023-11-12T08:03:45.610Z,9.747407
2023-11-12T08:04:45.574Z,9.747402
2023-11-12T08:05:45.577Z,9.747547
2023-11-12T08:06:45.528Z,9.747444
2023-11-12T08:07:45.519Z,9.747479
2023-11-12T08:08:45.492Z,9.747421
2023-11-12T08:09:46.582Z,9.747409
2023-11-12T08:10:45.518Z,9.747367
2023-11-12T08:11:45.516Z,9.747375
2023-11-12T08:12:45.481Z,9.747315
2023-11-12T08:13:45.474Z,9.747330
2023-11-12T08:14:45.491Z,9.747394
2023-11-12T08:15:45.490Z,9.747348
2023-11-12T08:16:45.462Z,9.747410
2023-11-12T08:17:45.441Z,9.747323
2023-11-12T08:18:45.476Z,9.747370
2023-11-12T08:19:45.467Z,9.747385
2023-11-12T08:20:45.418Z,9.747287
2023-11-12T08:21:45.446Z,9.747292
2023-11-12T08:22:45.427Z,9.747353
2023-11-12T08:23:45.416Z,9.747349
2023-11-12T08:24:45.425Z,9.747301
2023-11-12T08:25:45.397Z,9.747288
2023-11-12T08:26:45.371Z,9.747338
2023-11-12T08:27:45.397Z,9.747494
2023-11-12T08:28:45.381Z,9.747471
2023-11-12T08:29:45.345Z,9.747378
2023-11-12T08:30:45.390Z,9.747302
2023-11-12T08:31:45.342Z,9.747396
2023-11-12T08:32:45.364Z,9.747390
2023-11-12T08:33:45.429Z,9.747487
2023-11-12T08:34:45.312Z,9.747343
2023-11-12T08:35:45.302Z,9.747370
2023-11-12T08:36:45.374Z,9.747348
2023-11-12T08:37:45.317Z,9.747304
2023-11-12T08:38:46.349Z,9.747274
2023-11-12T08:39:45.316Z,9.747225
2023-11-12T08:40:45.335Z,9.747330
2023-11-12T08:41:45.257Z,9.747379
2023-11-12T08:42:45.330Z,9.747403
2023-11-12T08:43:45.316Z,9.747420
2023-11-12T08:44:45.235Z,9.747419
2023-11-12T08:45:45.259Z,9.747385
2023-11-12T08:46:45.257Z,9.747387
2023-11-12T08:47:45.294Z,9.747377
2023-11-12T08:48:45.227Z,9.747374
2023-11-12T08:49:45.206Z,9.747287
2023-11-12T08:50:45.212Z,9.747372
2023-11-12T08:51:45.192Z,9.747415
2023-11-12T08:52:45.210Z,9.747443
2023-11-12T08:53:45.180Z,9.747377
2023-11-12T08:54:45.218Z,9.747333
2023-11-12T08:55:45.152Z,9.747349
2023-11-12T08:56:45.165Z,9.747434
2023-11-12T08:57:45.195Z,9.747415
2023-11-12T08:58:45.120Z,9.747357
2023-11-12T08:59:45.121Z,9.747442
2023-11-12T09:00:45.159Z,9.747371
2023-11-12T09:01:45.244Z,9.747332
2023-11-12T09:02:46.193Z,9.747347
2023-11-12T09:03:45.140Z,9.747347
2023-11-12T09:04:45.073Z,9.747305
2023-11-12T09:05:45.071Z,9.747386
2023-11-12T09:06:45.164Z,9.747264
2023-11-12T09:07:45.079Z,9.747360
2023-11-12T09:08:45.070Z,9.747418
2023-11-12T09:09:45.103Z,9.747396
2023-11-12T09:10:45.044Z,9.747315
2023-11-12T09:11:45.054Z,9.747365
2023-11-12T09:12:45.064Z,9.747374
2023-11-12T09:13:45.014Z,9.747318
2023-11-12T09:14:45.001Z,9.747330
2023-11-12T09:15:45.062Z,9.747328
2023-11-12T09:16:45.194Z,9.747399
2023-11-12T09:17:45.050Z,9.747396
2023-11-12T09:18:45.025Z,9.747333
2023-11-12T09:19:44.988Z,9.747318
2023-11-12T09:20:44.987Z,9.747379
2023-11-12T09:21:45.082Z,9.747424
2023-11-12T09:22:44.938Z,9.747420
2023-11-12T09:23:44.936Z,9.747385
2023-11-12T09:24:55.383Z,9.747380
2023-11-12T09:25:46.916Z,9.747338
2023-11-12T09:26:44.946Z,9.747375
2023-11-12T09:27:44.931Z,9.747475
2023-11-12T09:28:44.912Z,9.747407
2023-11-12T09:29:44.886Z,9.747278
2023-11-12T09:30:54.368Z,9.747306
2023-11-12T09:31:45.905Z,9.747403
2023-11-12T09:32:44.937Z,9.747401
2023-11-12T09:33:44.960Z,9.747426
2023-11-12T09:34:45.342Z,9.747376
2023-11-12T09:35:44.864Z,9.747413
2023-11-12T09:36:44.886Z,9.747427
2023-11-12T09:37:44.836Z,9.747351
2023-11-12T09:38:44.823Z,9.747436
2023-11-12T09:39:44.880Z,9.747371
2023-11-12T09:40:44.848Z,9.747432
2023-11-12T09:41:44.873Z,9.747272
2023-11-12T09:42:44.833Z,9.747313
2023-11-12T09:43:44.796Z,9.747262
2023-11-12T09:44:44.773Z,9.747319
2023-11-12T09:45:44.869Z,9.747258
2023-11-12T09:46:44.762Z,9.747379
2023-11-12T09:47:44.833Z,9.747346
2023-11-12T09:48:44.763Z,9.747438
2023-11-12T09:49:44.754Z,9.747382
2023-11-12T09:50:44.750Z,9.747316
2023-11-12T09:51:44.851Z,9.747350
2023-11-12T09:52:44.715Z,9.747416
2023-11-12T09:53:44.714Z,9.747435
2023-11-12T09:54:44.720Z,9.747398
2023-11-12T09:55:44.723Z,9.747322
2023-11-12T09:56:45.098Z,9.747379
2023-11-12T09:57:44.725Z,9.747458
2023-11-12T09:58:44.667Z,9.747422
2023-11-12T09:59:44.696Z,9.747394
2023-11-12T10:00:44.821Z,9.747416
2023-11-12T10:01:44.670Z,9.747501
2023-11-12T10:02:44.720Z,9.747484
2023-11-12T10:03:44.828Z,9.747364
2023-11-12T10:04:44.796Z,9.747508
2023-11-12T10:05:44.632Z,9.747425
2023-11-12T10:06:44.677Z,9.747430
2023-11-12T10:07:44.721Z,9.747435
2023-11-12T10:08:44.608Z,9.747531
2023-11-12T10:09:44.724Z,9.747569
2023-11-12T10:10:44.626Z,9.747509
2023-11-12T10:11:44.640Z,9.747446
2023-11-12T10:12:44.639Z,9.747421
2023-11-12T10:13:44.630Z,9.747468
2023-11-12T10:14:44.620Z,9.747457
2023-11-12T10:15:45.610Z,9.747525
2023-11-12T10:16:44.645Z,9.747465
2023-11-12T10:17:44.679Z,9.747444
2023-11-12T10:18:44.597Z,9.747495
2023-11-12T10:19:44.583Z,9.747490
2023-11-12T10:20:44.508Z,9.747494
2023-11-12T10:21:44.551Z,9.747451
2023-11-12T10:22:44.606Z,9.747408
2023-11-12T10:23:44.520Z,9.747077
2023-11-12T10:24:44.574Z,9.747263
2023-11-12T10:25:44.481Z,9.747340
2023-11-12T10:26:44.451Z,9.747604
2023-11-12T10:27:44.499Z,9.747593
2023-11-12T10:28:44.510Z,9.747406
2023-11-12T10:29:44.467Z,9.747478
2023-11-12T10:30:44.459Z,9.747332
2023-11-12T10:31:44.463Z,9.747464
2023-11-12T10:32:44.507Z,9.747381
2023-11-12T10:33:44.500Z,9.747417
2023-11-12T10:34:44.428Z,9.747556
2023-11-12T10:35:44.406Z,9.747229
2023-11-12T10:36:44.428Z,9.747424
2023-11-12T10:37:44.372Z,9.747497
2023-11-12T10:38:44.403Z,9.747520
2023-11-12T10:39:44.388Z,9.747516
2023-11-12T10:40:44.365Z,9.747512
2023-11-12T10:41:44.345Z,9.747524
2023-11-12T10:42:44.405Z,9.747423
2023-11-12T10:43:44.395Z,9.747412
2023-11-12T10:44:44.320Z,9.747373
2023-11-12T10:45:44.371Z,9.747419
2023-11-12T10:46:44.374Z,9.747354
2023-11-12T10:47:44.352Z,9.747381
2023-11-12T10:48:44.436Z,9.747502
2023-11-12T10:49:44.272Z,9.747480
2023-11-12T10:50:44.271Z,9.747321
2023-11-12T10:51:44.377Z,9.747330
2023-11-12T10:52:44.291Z,9.747336
2023-11-12T10:53:44.236Z,9.747305
2023-11-12T10:54:44.473Z,9.747434
2023-11-12T10:55:44.227Z,9.747411
2023-11-12T10:56:44.224Z,9.747446
2023-11-12T10:57:44.337Z,9.747432
2023-11-12T10:58:44.240Z,9.747517
2023-11-12T10:59:44.188Z,9.747424
2023-11-12T11:00:44.294Z,9.747499
2023-11-12T11:01:44.246Z,9.747368
2023-11-12T11:02:44.232Z,9.747504
2023-11-12T11:03:44.215Z,9.747495
2023-11-12T11:04:44.267Z,9.747553
2023-11-12T11:05:44.148Z,9.747478
2023-11-12T11:06:44.187Z,9.747443
2023-11-12T11:07:44.182Z,9.747458
2023-11-12T11:08:44.131Z,9.747416
2023-11-12T11:09:44.148Z,9.747404
2023-11-12T11:10:44.117Z,9.747436
2023-11-12T11:11:44.127Z,9.747482
2023-11-12T11:12:44.149Z,9.747430
2023-11-12T11:13:44.143Z,9.747457
2023-11-12T11:14:44.078Z,9.747460
2023-11-12T11:15:44.171Z,9.747443
2023-11-12T11:16:44.127Z,9.747433
2023-11-12T11:17:44.051Z,9.747451
2023-11-12T11:18:44.094Z,9.747442
2023-11-12T11:19:44.036Z,9.747419
2023-11-12T11:20:44.027Z,9.747346
2023-11-12T11:21:44.054Z,9.747378
2023-11-12T11:23:16.494Z,9.747384
2023-11-12T11:23:44.015Z,9.747322
2023-11-12T11:24:44.025Z,9.747442
2023-11-12T11:25:44.011Z,9.747383
2023-11-12T11:26:44.012Z,9.747449
2023-11-12T11:27:43.995Z,9.747385
2023-11-12T11:28:43.961Z,9.747430
2023-11-12T11:29:44.672Z,9.747564
2023-11-12T11:30:43.997Z,9.747490
2023-11-12T11:31:43.940Z,9.747549
2023-11-12T11:32:43.952Z,9.747497
2023-11-12T11:33:44.142Z,9.747419
2023-11-12T11:34:44.915Z,9.747389
2023-11-12T11:35:43.928Z,9.747419
2023-11-12T11:36:44.964Z,9.747422
2023-11-12T11:37:43.908Z,9.747566
2023-11-12T11:38:43.884Z,9.747475
2023-11-12T11:39:43.948Z,9.747568
2023-11-12T11:40:43.899Z,9.747518
2023-11-12T11:41:43.876Z,9.747492
2023-11-12T11:42:43.910Z,9.747401
2023-11-12T11:43:43.846Z,9.747375
2023-11-12T11:44:43.889Z,9.747353